sensor_id;sensor_type;location;lat;lon;timestamp;P1;durP1;ratioP1;P2;durP2;ratioP2
27539;SDS011;15906;52.046;4.724;2023-03-23T00:00:51;8.82;;;3.70;;
27539;SDS011;15906;52.046;4.724;2023-03-23T00:03:16;8.07;;;3.60;;
27539;SDS011;15906;52.046;4.724;2023-03-23T00:05:43;6.68;;;3.40;;
27539;SDS011;15906;52.046;4.724;2023-03-23T00:08:15;8.30;;;3.47;;
27539;SDS011;15906;52.046;4.724;2023-03-23T00:10:42;6.45;;;4.38;;
27539;SDS011;15906;52.046;4.724;2023-03-23T00:13:07;8.18;;;4.00;;
27539;SDS011;15906;52.046;4.724;2023-03-23T00:15:33;8.55;;;3.38;;
27539;SDS011;15906;52.046;4.724;2023-03-23T00:18:00;10.18;;;3.83;;
27539;SDS011;15906;52.046;4.724;2023-03-23T00:20:27;7.00;;;3.58;;
27539;SDS011;15906;52.046;4.724;2023-03-23T00:22:54;6.60;;;3.63;;
27539;SDS011;15906;52.046;4.724;2023-03-23T00:25:25;9.95;;;4.53;;
27539;SDS011;15906;52.046;4.724;2023-03-23T00:27:51;6.00;;;2.95;;
27539;SDS011;15906;52.046;4.724;2023-03-23T00:30:16;9.88;;;3.40;;
27539;SDS011;15906;52.046;4.724;2023-03-23T00:32:42;7.40;;;3.75;;
27539;SDS011;15906;52.046;4.724;2023-03-23T00:35:08;4.07;;;2.60;;
27539;SDS011;15906;52.046;4.724;2023-03-23T00:37:34;8.05;;;2.90;;
27539;SDS011;15906;52.046;4.724;2023-03-23T00:40:00;5.90;;;2.80;;
27539;SDS011;15906;52.046;4.724;2023-03-23T00:42:30;5.85;;;3.10;;
27539;SDS011;15906;52.046;4.724;2023-03-23T00:45:01;12.70;;;3.17;;
27539;SDS011;15906;52.046;4.724;2023-03-23T00:47:27;6.10;;;2.88;;
27539;SDS011;15906;52.046;4.724;2023-03-23T00:49:53;5.45;;;2.50;;
27539;SDS011;15906;52.046;4.724;2023-03-23T00:52:21;5.50;;;2.72;;
27539;SDS011;15906;52.046;4.724;2023-03-23T00:54:46;7.47;;;2.72;;
27539;SDS011;15906;52.046;4.724;2023-03-23T00:57:12;5.70;;;2.70;;
27539;SDS011;15906;52.046;4.724;2023-03-23T00:59:37;11.52;;;2.65;;
27539;SDS011;15906;52.046;4.724;2023-03-23T01:02:03;5.80;;;2.40;;
27539;SDS011;15906;52.046;4.724;2023-03-23T01:04:28;9.63;;;3.08;;
27539;SDS011;15906;52.046;4.724;2023-03-23T01:06:56;4.22;;;2.50;;
27539;SDS011;15906;52.046;4.724;2023-03-23T01:09:22;7.35;;;3.28;;
27539;SDS011;15906;52.046;4.724;2023-03-23T01:11:49;6.97;;;2.70;;
27539;SDS011;15906;52.046;4.724;2023-03-23T01:14:16;6.07;;;3.03;;
27539;SDS011;15906;52.046;4.724;2023-03-23T01:16:43;6.22;;;2.50;;
27539;SDS011;15906;52.046;4.724;2023-03-23T01:19:09;4.85;;;2.25;;
27539;SDS011;15906;52.046;4.724;2023-03-23T01:21:35;6.20;;;2.33;;
27539;SDS011;15906;52.046;4.724;2023-03-23T01:24:01;4.57;;;2.58;;
27539;SDS011;15906;52.046;4.724;2023-03-23T01:26:27;5.97;;;2.38;;
27539;SDS011;15906;52.046;4.724;2023-03-23T01:28:54;6.13;;;2.60;;
27539;SDS011;15906;52.046;4.724;2023-03-23T01:31:22;6.07;;;3.95;;
27539;SDS011;15906;52.046;4.724;2023-03-23T01:33:49;5.03;;;2.90;;
27539;SDS011;15906;52.046;4.724;2023-03-23T01:36:20;4.63;;;2.10;;
27539;SDS011;15906;52.046;4.724;2023-03-23T01:38:48;5.93;;;2.50;;
27539;SDS011;15906;52.046;4.724;2023-03-23T01:41:15;7.22;;;2.90;;
27539;SDS011;15906;52.046;4.724;2023-03-23T01:44:02;4.85;;;2.70;;
27539;SDS011;15906;52.046;4.724;2023-03-23T01:46:31;5.93;;;2.30;;
27539;SDS011;15906;52.046;4.724;2023-03-23T01:49:00;5.88;;;2.42;;
27539;SDS011;15906;52.046;4.724;2023-03-23T01:51:33;7.13;;;2.25;;
27539;SDS011;15906;52.046;4.724;2023-03-23T01:54:02;4.10;;;2.85;;
27539;SDS011;15906;52.046;4.724;2023-03-23T01:56:32;4.82;;;2.80;;
27539;SDS011;15906;52.046;4.724;2023-03-23T01:59:06;3.78;;;2.45;;
27539;SDS011;15906;52.046;4.724;2023-03-23T02:01:33;6.07;;;2.40;;
27539;SDS011;15906;52.046;4.724;2023-03-23T02:04:03;3.13;;;2.17;;
27539;SDS011;15906;52.046;4.724;2023-03-23T02:06:30;7.13;;;2.47;;
27539;SDS011;15906;52.046;4.724;2023-03-23T02:08:56;5.65;;;2.53;;
27539;SDS011;15906;52.046;4.724;2023-03-23T02:11:22;4.65;;;2.78;;
27539;SDS011;15906;52.046;4.724;2023-03-23T02:13:48;2.75;;;2.03;;
27539;SDS011;15906;52.046;4.724;2023-03-23T02:19:26;4.57;;;2.20;;
27539;SDS011;15906;52.046;4.724;2023-03-23T02:22:28;4.43;;;2.85;;
27539;SDS011;15906;52.046;4.724;2023-03-23T02:38:42;8.32;;;2.55;;
27539;SDS011;15906;52.046;4.724;2023-03-23T02:41:36;4.22;;;2.45;;
27539;SDS011;15906;52.046;4.724;2023-03-23T02:44:06;5.60;;;2.70;;
27539;SDS011;15906;52.046;4.724;2023-03-23T02:46:33;6.10;;;2.60;;
27539;SDS011;15906;52.046;4.724;2023-03-23T02:49:00;4.38;;;2.17;;
27539;SDS011;15906;52.046;4.724;2023-03-23T02:51:29;7.97;;;2.45;;
27539;SDS011;15906;52.046;4.724;2023-03-23T02:53:57;5.93;;;2.10;;
27539;SDS011;15906;52.046;4.724;2023-03-23T02:56:25;5.18;;;2.30;;
27539;SDS011;15906;52.046;4.724;2023-03-23T02:58:52;4.90;;;2.10;;
27539;SDS011;15906;52.046;4.724;2023-03-23T03:03:51;11.57;;;2.40;;
27539;SDS011;15906;52.046;4.724;2023-03-23T03:06:24;7.38;;;2.33;;
27539;SDS011;15906;52.046;4.724;2023-03-23T03:09:01;7.30;;;2.30;;
27539;SDS011;15906;52.046;4.724;2023-03-23T03:11:47;6.47;;;1.85;;
27539;SDS011;15906;52.046;4.724;2023-03-23T03:14:21;6.40;;;2.03;;
27539;SDS011;15906;52.046;4.724;2023-03-23T03:16:54;8.82;;;2.15;;
27539;SDS011;15906;52.046;4.724;2023-03-23T03:19:43;7.03;;;2.75;;
27539;SDS011;15906;52.046;4.724;2023-03-23T03:22:13;5.03;;;2.30;;
27539;SDS011;15906;52.046;4.724;2023-03-23T03:24:38;5.43;;;2.25;;
27539;SDS011;15906;52.046;4.724;2023-03-23T03:27:10;7.72;;;2.50;;
27539;SDS011;15906;52.046;4.724;2023-03-23T03:29:40;5.25;;;2.13;;
27539;SDS011;15906;52.046;4.724;2023-03-23T03:32:06;6.05;;;2.70;;
27539;SDS011;15906;52.046;4.724;2023-03-23T03:34:36;6.15;;;2.20;;
27539;SDS011;15906;52.046;4.724;2023-03-23T03:37:02;6.63;;;2.15;;
27539;SDS011;15906;52.046;4.724;2023-03-23T03:39:30;7.53;;;2.28;;
27539;SDS011;15906;52.046;4.724;2023-03-23T03:41:59;5.80;;;2.47;;
27539;SDS011;15906;52.046;4.724;2023-03-23T03:44:24;5.38;;;2.15;;
27539;SDS011;15906;52.046;4.724;2023-03-23T03:46:50;5.25;;;2.90;;
27539;SDS011;15906;52.046;4.724;2023-03-23T03:49:15;5.38;;;2.47;;
27539;SDS011;15906;52.046;4.724;2023-03-23T03:51:41;7.25;;;2.78;;
27539;SDS011;15906;52.046;4.724;2023-03-23T03:54:07;7.60;;;2.92;;
27539;SDS011;15906;52.046;4.724;2023-03-23T03:56:32;6.47;;;2.05;;
27539;SDS011;15906;52.046;4.724;2023-03-23T03:59:01;5.53;;;2.45;;
27539;SDS011;15906;52.046;4.724;2023-03-23T04:01:27;8.43;;;2.58;;
27539;SDS011;15906;52.046;4.724;2023-03-23T04:03:53;9.98;;;2.53;;
27539;SDS011;15906;52.046;4.724;2023-03-23T04:06:19;10.20;;;2.65;;
27539;SDS011;15906;52.046;4.724;2023-03-23T04:08:46;10.77;;;3.22;;
27539;SDS011;15906;52.046;4.724;2023-03-23T04:11:12;6.80;;;2.33;;
27539;SDS011;15906;52.046;4.724;2023-03-23T04:13:39;6.82;;;1.88;;
27539;SDS011;15906;52.046;4.724;2023-03-23T04:16:06;4.13;;;1.60;;
27539;SDS011;15906;52.046;4.724;2023-03-23T04:18:34;7.32;;;2.33;;
27539;SDS011;15906;52.046;4.724;2023-03-23T04:21:01;7.32;;;1.85;;
27539;SDS011;15906;52.046;4.724;2023-03-23T04:23:29;7.43;;;2.10;;
27539;SDS011;15906;52.046;4.724;2023-03-23T04:25:58;6.97;;;2.20;;
27539;SDS011;15906;52.046;4.724;2023-03-23T04:28:24;8.73;;;2.30;;
27539;SDS011;15906;52.046;4.724;2023-03-23T04:30:51;6.88;;;1.88;;
27539;SDS011;15906;52.046;4.724;2023-03-23T04:33:23;7.43;;;1.92;;
27539;SDS011;15906;52.046;4.724;2023-03-23T04:35:54;8.80;;;2.60;;
27539;SDS011;15906;52.046;4.724;2023-03-23T04:38:22;10.77;;;2.28;;
27539;SDS011;15906;52.046;4.724;2023-03-23T04:40:50;9.70;;;2.50;;
27539;SDS011;15906;52.046;4.724;2023-03-23T04:43:17;9.23;;;2.00;;
27539;SDS011;15906;52.046;4.724;2023-03-23T04:45:47;9.43;;;1.90;;
27539;SDS011;15906;52.046;4.724;2023-03-23T04:48:20;9.20;;;2.33;;
27539;SDS011;15906;52.046;4.724;2023-03-23T04:50:48;9.35;;;2.28;;
27539;SDS011;15906;52.046;4.724;2023-03-23T04:53:15;8.38;;;2.25;;
27539;SDS011;15906;52.046;4.724;2023-03-23T04:55:43;7.65;;;2.13;;
27539;SDS011;15906;52.046;4.724;2023-03-23T04:58:08;7.13;;;2.92;;
27539;SDS011;15906;52.046;4.724;2023-03-23T05:00:37;8.95;;;2.35;;
27539;SDS011;15906;52.046;4.724;2023-03-23T05:03:03;10.40;;;2.90;;
27539;SDS011;15906;52.046;4.724;2023-03-23T05:05:29;10.05;;;3.38;;
27539;SDS011;15906;52.046;4.724;2023-03-23T05:07:55;11.85;;;3.53;;
27539;SDS011;15906;52.046;4.724;2023-03-23T05:10:21;6.78;;;2.72;;
27539;SDS011;15906;52.046;4.724;2023-03-23T05:12:47;9.15;;;3.65;;
27539;SDS011;15906;52.046;4.724;2023-03-23T05:15:14;10.15;;;3.92;;
27539;SDS011;15906;52.046;4.724;2023-03-23T05:17:40;9.77;;;2.67;;
27539;SDS011;15906;52.046;4.724;2023-03-23T05:20:09;13.98;;;3.75;;
27539;SDS011;15906;52.046;4.724;2023-03-23T05:22:37;11.40;;;3.03;;
27539;SDS011;15906;52.046;4.724;2023-03-23T05:25:04;12.07;;;2.65;;
27539;SDS011;15906;52.046;4.724;2023-03-23T05:27:30;12.35;;;3.10;;
27539;SDS011;15906;52.046;4.724;2023-03-23T05:29:57;13.00;;;3.10;;
27539;SDS011;15906;52.046;4.724;2023-03-23T05:32:24;12.90;;;3.70;;
27539;SDS011;15906;52.046;4.724;2023-03-23T05:35:00;12.90;;;2.83;;
27539;SDS011;15906;52.046;4.724;2023-03-23T05:37:27;17.63;;;3.38;;
27539;SDS011;15906;52.046;4.724;2023-03-23T05:39:57;18.75;;;3.70;;
27539;SDS011;15906;52.046;4.724;2023-03-23T05:42:30;12.27;;;3.85;;
27539;SDS011;15906;52.046;4.724;2023-03-23T05:44:56;12.98;;;3.85;;
27539;SDS011;15906;52.046;4.724;2023-03-23T05:47:23;6.38;;;2.58;;
27539;SDS011;15906;52.046;4.724;2023-03-23T05:49:48;13.45;;;3.63;;
27539;SDS011;15906;52.046;4.724;2023-03-23T05:52:14;12.27;;;3.90;;
27539;SDS011;15906;52.046;4.724;2023-03-23T05:54:40;16.05;;;4.15;;
27539;SDS011;15906;52.046;4.724;2023-03-23T05:57:06;15.07;;;2.85;;
27539;SDS011;15906;52.046;4.724;2023-03-23T05:59:33;11.35;;;3.50;;
27539;SDS011;15906;52.046;4.724;2023-03-23T06:01:59;11.48;;;3.97;;
27539;SDS011;15906;52.046;4.724;2023-03-23T06:04:25;13.68;;;4.25;;
27539;SDS011;15906;52.046;4.724;2023-03-23T06:06:52;13.32;;;4.03;;
27539;SDS011;15906;52.046;4.724;2023-03-23T06:09:18;11.57;;;3.83;;
27539;SDS011;15906;52.046;4.724;2023-03-23T06:11:44;18.85;;;5.43;;
27539;SDS011;15906;52.046;4.724;2023-03-23T06:14:10;13.95;;;4.18;;
27539;SDS011;15906;52.046;4.724;2023-03-23T06:16:36;17.13;;;4.47;;
27539;SDS011;15906;52.046;4.724;2023-03-23T06:19:02;11.55;;;4.82;;
27539;SDS011;15906;52.046;4.724;2023-03-23T06:21:29;19.30;;;5.95;;
27539;SDS011;15906;52.046;4.724;2023-03-23T06:23:55;16.35;;;5.15;;
27539;SDS011;15906;52.046;4.724;2023-03-23T06:26:21;13.82;;;5.43;;
27539;SDS011;15906;52.046;4.724;2023-03-23T06:28:58;18.15;;;5.22;;
27539;SDS011;15906;52.046;4.724;2023-03-23T06:31:24;13.95;;;5.13;;
27539;SDS011;15906;52.046;4.724;2023-03-23T06:33:52;18.77;;;5.20;;
27539;SDS011;15906;52.046;4.724;2023-03-23T06:36:18;14.40;;;4.93;;
27539;SDS011;15906;52.046;4.724;2023-03-23T06:38:44;16.45;;;4.32;;
27539;SDS011;15906;52.046;4.724;2023-03-23T06:41:10;18.35;;;5.57;;
27539;SDS011;15906;52.046;4.724;2023-03-23T06:43:36;17.40;;;5.18;;
27539;SDS011;15906;52.046;4.724;2023-03-23T06:46:04;13.57;;;5.65;;
27539;SDS011;15906;52.046;4.724;2023-03-23T06:48:30;16.52;;;4.57;;
27539;SDS011;15906;52.046;4.724;2023-03-23T06:50:56;10.57;;;4.20;;
27539;SDS011;15906;52.046;4.724;2023-03-23T06:53:22;12.45;;;4.47;;
27539;SDS011;15906;52.046;4.724;2023-03-23T06:55:48;15.25;;;4.57;;
27539;SDS011;15906;52.046;4.724;2023-03-23T06:58:13;11.98;;;3.50;;
27539;SDS011;15906;52.046;4.724;2023-03-23T07:00:39;14.43;;;5.05;;
27539;SDS011;15906;52.046;4.724;2023-03-23T07:03:05;18.73;;;3.63;;
27539;SDS011;15906;52.046;4.724;2023-03-23T07:05:32;14.60;;;3.88;;
27539;SDS011;15906;52.046;4.724;2023-03-23T07:07:58;13.25;;;3.47;;
27539;SDS011;15906;52.046;4.724;2023-03-23T07:10:24;14.00;;;3.20;;
27539;SDS011;15906;52.046;4.724;2023-03-23T07:12:49;8.75;;;2.97;;
27539;SDS011;15906;52.046;4.724;2023-03-23T07:15:15;11.40;;;3.40;;
27539;SDS011;15906;52.046;4.724;2023-03-23T07:17:41;17.48;;;4.03;;
27539;SDS011;15906;52.046;4.724;2023-03-23T07:20:06;17.30;;;3.92;;
27539;SDS011;15906;52.046;4.724;2023-03-23T07:22:32;14.20;;;3.70;;
27539;SDS011;15906;52.046;4.724;2023-03-23T07:24:58;12.10;;;3.67;;
27539;SDS011;15906;52.046;4.724;2023-03-23T07:27:24;5.78;;;2.50;;
27539;SDS011;15906;52.046;4.724;2023-03-23T07:29:50;13.18;;;3.28;;
27539;SDS011;15906;52.046;4.724;2023-03-23T07:32:16;9.73;;;2.60;;
27539;SDS011;15906;52.046;4.724;2023-03-23T07:34:41;15.95;;;2.95;;
27539;SDS011;15906;52.046;4.724;2023-03-23T07:37:07;12.90;;;2.97;;
27539;SDS011;15906;52.046;4.724;2023-03-23T07:39:33;16.52;;;3.20;;
27539;SDS011;15906;52.046;4.724;2023-03-23T07:41:59;9.95;;;2.45;;
27539;SDS011;15906;52.046;4.724;2023-03-23T07:44:24;11.00;;;2.85;;
27539;SDS011;15906;52.046;4.724;2023-03-23T07:46:50;13.35;;;2.60;;
27539;SDS011;15906;52.046;4.724;2023-03-23T07:49:16;13.75;;;2.38;;
27539;SDS011;15906;52.046;4.724;2023-03-23T07:51:42;14.70;;;3.03;;
27539;SDS011;15906;52.046;4.724;2023-03-23T07:54:08;14.18;;;2.95;;
27539;SDS011;15906;52.046;4.724;2023-03-23T07:56:34;10.43;;;2.55;;
27539;SDS011;15906;52.046;4.724;2023-03-23T07:59:01;11.23;;;2.45;;
27539;SDS011;15906;52.046;4.724;2023-03-23T08:01:27;13.88;;;3.08;;
27539;SDS011;15906;52.046;4.724;2023-03-23T08:03:54;8.60;;;2.13;;
27539;SDS011;15906;52.046;4.724;2023-03-23T08:06:22;15.70;;;3.13;;
27539;SDS011;15906;52.046;4.724;2023-03-23T08:08:48;14.07;;;3.15;;
27539;SDS011;15906;52.046;4.724;2023-03-23T08:11:14;10.07;;;2.53;;
27539;SDS011;15906;52.046;4.724;2023-03-23T08:13:41;15.75;;;2.65;;
27539;SDS011;15906;52.046;4.724;2023-03-23T08:16:07;13.32;;;3.10;;
27539;SDS011;15906;52.046;4.724;2023-03-23T08:18:34;9.45;;;2.90;;
27539;SDS011;15906;52.046;4.724;2023-03-23T08:21:00;16.80;;;2.97;;
27539;SDS011;15906;52.046;4.724;2023-03-23T08:23:26;6.97;;;2.70;;
27539;SDS011;15906;52.046;4.724;2023-03-23T08:25:52;16.00;;;3.00;;
27539;SDS011;15906;52.046;4.724;2023-03-23T08:28:18;10.60;;;3.25;;
27539;SDS011;15906;52.046;4.724;2023-03-23T08:30:44;9.05;;;2.85;;
27539;SDS011;15906;52.046;4.724;2023-03-23T08:33:10;9.27;;;2.60;;
27539;SDS011;15906;52.046;4.724;2023-03-23T08:35:36;8.48;;;2.58;;
27539;SDS011;15906;52.046;4.724;2023-03-23T08:38:02;8.95;;;2.70;;
27539;SDS011;15906;52.046;4.724;2023-03-23T08:40:28;18.67;;;4.55;;
27539;SDS011;15906;52.046;4.724;2023-03-23T08:42:54;8.15;;;2.95;;
27539;SDS011;15906;52.046;4.724;2023-03-23T08:45:21;12.43;;;3.80;;
27539;SDS011;15906;52.046;4.724;2023-03-23T08:47:48;11.68;;;4.25;;
27539;SDS011;15906;52.046;4.724;2023-03-23T08:50:18;10.93;;;3.35;;
27539;SDS011;15906;52.046;4.724;2023-03-23T08:52:48;12.85;;;4.00;;
27539;SDS011;15906;52.046;4.724;2023-03-23T08:55:15;10.55;;;3.65;;
27539;SDS011;15906;52.046;4.724;2023-03-23T08:57:42;15.60;;;4.30;;
27539;SDS011;15906;52.046;4.724;2023-03-23T09:00:10;18.80;;;4.13;;
27539;SDS011;15906;52.046;4.724;2023-03-23T09:02:42;15.73;;;3.63;;
27539;SDS011;15906;52.046;4.724;2023-03-23T09:05:09;19.50;;;3.40;;
27539;SDS011;15906;52.046;4.724;2023-03-23T09:07:37;15.38;;;3.67;;
27539;SDS011;15906;52.046;4.724;2023-03-23T09:10:03;15.88;;;3.58;;
27539;SDS011;15906;52.046;4.724;2023-03-23T09:12:29;12.30;;;3.35;;
27539;SDS011;15906;52.046;4.724;2023-03-23T09:14:55;16.23;;;3.50;;
27539;SDS011;15906;52.046;4.724;2023-03-23T09:17:21;16.70;;;3.47;;
27539;SDS011;15906;52.046;4.724;2023-03-23T09:19:46;10.25;;;3.22;;
27539;SDS011;15906;52.046;4.724;2023-03-23T09:22:12;16.50;;;3.85;;
27539;SDS011;15906;52.046;4.724;2023-03-23T09:24:38;14.50;;;3.30;;
27539;SDS011;15906;52.046;4.724;2023-03-23T09:27:04;15.13;;;2.90;;
27539;SDS011;15906;52.046;4.724;2023-03-23T09:29:30;14.07;;;3.92;;
27539;SDS011;15906;52.046;4.724;2023-03-23T09:31:55;13.90;;;2.97;;
27539;SDS011;15906;52.046;4.724;2023-03-23T09:34:21;13.23;;;2.72;;
27539;SDS011;15906;52.046;4.724;2023-03-23T09:36:47;14.05;;;3.47;;
27539;SDS011;15906;52.046;4.724;2023-03-23T09:39:14;16.33;;;3.47;;
27539;SDS011;15906;52.046;4.724;2023-03-23T09:47:08;13.20;;;3.47;;
27539;SDS011;15906;52.046;4.724;2023-03-23T09:49:47;10.70;;;3.42;;
27539;SDS011;15906;52.046;4.724;2023-03-23T09:52:37;12.48;;;3.33;;
27539;SDS011;15906;52.046;4.724;2023-03-23T09:55:22;14.43;;;3.20;;
27539;SDS011;15906;52.046;4.724;2023-03-23T10:00:37;11.50;;;2.95;;
27539;SDS011;15906;52.046;4.724;2023-03-23T10:03:22;11.38;;;3.08;;
27539;SDS011;15906;52.046;4.724;2023-03-23T10:05:53;16.27;;;3.53;;
27539;SDS011;15906;52.046;4.724;2023-03-23T10:08:24;10.23;;;2.83;;
27539;SDS011;15906;52.046;4.724;2023-03-23T10:13:57;14.95;;;2.85;;
27539;SDS011;15906;52.046;4.724;2023-03-23T10:16:33;11.55;;;3.03;;
27539;SDS011;15906;52.046;4.724;2023-03-23T10:19:20;16.40;;;3.25;;
27539;SDS011;15906;52.046;4.724;2023-03-23T10:21:50;11.23;;;2.42;;
27539;SDS011;15906;52.046;4.724;2023-03-23T10:24:21;16.13;;;3.67;;
27539;SDS011;15906;52.046;4.724;2023-03-23T10:30:17;16.48;;;3.10;;
27539;SDS011;15906;52.046;4.724;2023-03-23T10:32:56;13.30;;;3.80;;
27539;SDS011;15906;52.046;4.724;2023-03-23T10:35:29;15.85;;;3.53;;
27539;SDS011;15906;52.046;4.724;2023-03-23T10:38:03;14.55;;;2.92;;
27539;SDS011;15906;52.046;4.724;2023-03-23T10:40:50;18.65;;;3.40;;
27539;SDS011;15906;52.046;4.724;2023-03-23T10:43:20;19.83;;;3.30;;
27539;SDS011;15906;52.046;4.724;2023-03-23T10:45:47;18.02;;;4.03;;
27539;SDS011;15906;52.046;4.724;2023-03-23T10:48:24;22.58;;;3.25;;
27539;SDS011;15906;52.046;4.724;2023-03-23T10:50:56;17.05;;;3.38;;
27539;SDS011;15906;52.046;4.724;2023-03-23T10:53:26;21.25;;;3.35;;
27539;SDS011;15906;52.046;4.724;2023-03-23T10:55:55;15.70;;;3.95;;
27539;SDS011;15906;52.046;4.724;2023-03-23T10:58:23;20.30;;;3.30;;
27539;SDS011;15906;52.046;4.724;2023-03-23T11:00:56;18.58;;;3.58;;
27539;SDS011;15906;52.046;4.724;2023-03-23T11:03:29;17.23;;;2.88;;
27539;SDS011;15906;52.046;4.724;2023-03-23T11:06:08;18.73;;;3.53;;
27539;SDS011;15906;52.046;4.724;2023-03-23T11:08:51;16.92;;;3.28;;
27539;SDS011;15906;52.046;4.724;2023-03-23T11:11:24;16.75;;;3.13;;
27539;SDS011;15906;52.046;4.724;2023-03-23T11:13:55;12.40;;;2.95;;
27539;SDS011;15906;52.046;4.724;2023-03-23T11:16:52;16.30;;;3.80;;
27539;SDS011;15906;52.046;4.724;2023-03-23T11:19:33;12.23;;;2.75;;
27539;SDS011;15906;52.046;4.724;2023-03-23T11:24:30;17.08;;;3.55;;
27539;SDS011;15906;52.046;4.724;2023-03-23T11:26:58;13.55;;;2.88;;
27539;SDS011;15906;52.046;4.724;2023-03-23T11:29:25;18.67;;;2.92;;
27539;SDS011;15906;52.046;4.724;2023-03-23T11:31:53;11.05;;;2.38;;
27539;SDS011;15906;52.046;4.724;2023-03-23T11:34:33;12.10;;;2.58;;
27539;SDS011;15906;52.046;4.724;2023-03-23T11:37:02;14.85;;;3.17;;
27539;SDS011;15906;52.046;4.724;2023-03-23T11:39:32;14.55;;;2.90;;
27539;SDS011;15906;52.046;4.724;2023-03-23T11:42:00;9.63;;;2.92;;
27539;SDS011;15906;52.046;4.724;2023-03-23T11:44:43;15.10;;;2.83;;
27539;SDS011;15906;52.046;4.724;2023-03-23T11:47:20;18.48;;;3.13;;
27539;SDS011;15906;52.046;4.724;2023-03-23T11:50:19;11.30;;;2.55;;
27539;SDS011;15906;52.046;4.724;2023-03-23T11:52:59;10.43;;;2.50;;
27539;SDS011;15906;52.046;4.724;2023-03-23T11:58:11;12.80;;;2.65;;
27539;SDS011;15906;52.046;4.724;2023-03-23T12:00:41;11.80;;;2.42;;
27539;SDS011;15906;52.046;4.724;2023-03-23T12:03:21;9.95;;;1.92;;
27539;SDS011;15906;52.046;4.724;2023-03-23T12:09:10;9.90;;;2.50;;
27539;SDS011;15906;52.046;4.724;2023-03-23T12:14:12;10.90;;;2.47;;
27539;SDS011;15906;52.046;4.724;2023-03-23T12:19:12;7.60;;;2.15;;
27539;SDS011;15906;52.046;4.724;2023-03-23T12:22:05;10.52;;;2.83;;
27539;SDS011;15906;52.046;4.724;2023-03-23T12:38:17;12.25;;;2.22;;
27539;SDS011;15906;52.046;4.724;2023-03-23T12:41:02;11.50;;;2.33;;
27539;SDS011;15906;52.046;4.724;2023-03-23T12:43:36;11.48;;;3.17;;
27539;SDS011;15906;52.046;4.724;2023-03-23T12:49:02;9.02;;;2.05;;
27539;SDS011;15906;52.046;4.724;2023-03-23T12:51:52;13.90;;;2.45;;
27539;SDS011;15906;52.046;4.724;2023-03-23T12:54:37;15.95;;;2.63;;
27539;SDS011;15906;52.046;4.724;2023-03-23T12:57:35;15.15;;;2.85;;
27539;SDS011;15906;52.046;4.724;2023-03-23T13:02:59;14.10;;;3.15;;
27539;SDS011;15906;52.046;4.724;2023-03-23T13:11:19;8.45;;;2.30;;
27539;SDS011;15906;52.046;4.724;2023-03-23T13:13:54;8.63;;;2.50;;
27539;SDS011;15906;52.046;4.724;2023-03-23T13:16:43;9.90;;;2.38;;
27539;SDS011;15906;52.046;4.724;2023-03-23T13:21:53;10.77;;;2.55;;
27539;SDS011;15906;52.046;4.724;2023-03-23T13:24:36;13.95;;;2.85;;
27539;SDS011;15906;52.046;4.724;2023-03-23T13:27:07;9.20;;;2.70;;
27539;SDS011;15906;52.046;4.724;2023-03-23T13:29:36;13.38;;;2.88;;
27539;SDS011;15906;52.046;4.724;2023-03-23T13:32:15;9.43;;;2.47;;
27539;SDS011;15906;52.046;4.724;2023-03-23T13:34:42;8.40;;;2.47;;
27539;SDS011;15906;52.046;4.724;2023-03-23T13:37:11;11.18;;;2.72;;
27539;SDS011;15906;52.046;4.724;2023-03-23T13:39:56;14.07;;;2.60;;
27539;SDS011;15906;52.046;4.724;2023-03-23T13:42:36;13.18;;;2.70;;
27539;SDS011;15906;52.046;4.724;2023-03-23T13:47:42;16.23;;;3.35;;
27539;SDS011;15906;52.046;4.724;2023-03-23T13:50:11;17.27;;;3.33;;
27539;SDS011;15906;52.046;4.724;2023-03-23T13:52:53;18.30;;;3.03;;
27539;SDS011;15906;52.046;4.724;2023-03-23T13:55:31;11.25;;;2.78;;
27539;SDS011;15906;52.046;4.724;2023-03-23T14:03:05;10.82;;;2.30;;
27539;SDS011;15906;52.046;4.724;2023-03-23T14:10:54;11.95;;;2.50;;
27539;SDS011;15906;52.046;4.724;2023-03-23T14:16:23;15.15;;;2.45;;
27539;SDS011;15906;52.046;4.724;2023-03-23T14:19:22;11.82;;;2.65;;
27539;SDS011;15906;52.046;4.724;2023-03-23T14:21:51;17.98;;;3.08;;
27539;SDS011;15906;52.046;4.724;2023-03-23T14:24:21;15.60;;;2.78;;
27539;SDS011;15906;52.046;4.724;2023-03-23T14:26:50;17.00;;;2.88;;
27539;SDS011;15906;52.046;4.724;2023-03-23T14:29:17;11.18;;;2.55;;
27539;SDS011;15906;52.046;4.724;2023-03-23T14:31:44;15.27;;;2.55;;
27539;SDS011;15906;52.046;4.724;2023-03-23T14:34:13;10.95;;;2.05;;
27539;SDS011;15906;52.046;4.724;2023-03-23T14:36:41;13.75;;;3.08;;
27539;SDS011;15906;52.046;4.724;2023-03-23T14:41:39;9.95;;;2.47;;
27539;SDS011;15906;52.046;4.724;2023-03-23T14:44:07;10.30;;;3.53;;
27539;SDS011;15906;52.046;4.724;2023-03-23T14:46:37;13.57;;;3.67;;
27539;SDS011;15906;52.046;4.724;2023-03-23T14:49:03;14.50;;;3.05;;
27539;SDS011;15906;52.046;4.724;2023-03-23T14:51:30;14.15;;;3.38;;
27539;SDS011;15906;52.046;4.724;2023-03-23T14:53:57;13.82;;;4.18;;
27539;SDS011;15906;52.046;4.724;2023-03-23T14:56:31;11.40;;;3.35;;
27539;SDS011;15906;52.046;4.724;2023-03-23T14:59:02;12.98;;;2.85;;
27539;SDS011;15906;52.046;4.724;2023-03-23T15:01:31;10.55;;;2.80;;
27539;SDS011;15906;52.046;4.724;2023-03-23T15:04:00;12.38;;;2.67;;
27539;SDS011;15906;52.046;4.724;2023-03-23T15:06:48;13.95;;;2.85;;
27539;SDS011;15906;52.046;4.724;2023-03-23T15:09:22;9.85;;;2.97;;
27539;SDS011;15906;52.046;4.724;2023-03-23T15:11:53;18.40;;;2.50;;
27539;SDS011;15906;52.046;4.724;2023-03-23T15:14:30;8.05;;;3.05;;
27539;SDS011;15906;52.046;4.724;2023-03-23T15:16:59;14.52;;;2.72;;
27539;SDS011;15906;52.046;4.724;2023-03-23T15:19:27;16.10;;;3.20;;
27539;SDS011;15906;52.046;4.724;2023-03-23T15:22:04;12.13;;;2.70;;
27539;SDS011;15906;52.046;4.724;2023-03-23T15:24:32;17.50;;;2.97;;
27539;SDS011;15906;52.046;4.724;2023-03-23T15:27:13;11.93;;;2.35;;
27539;SDS011;15906;52.046;4.724;2023-03-23T15:29:47;12.00;;;3.25;;
27539;SDS011;15906;52.046;4.724;2023-03-23T15:32:39;15.07;;;3.28;;
27539;SDS011;15906;52.046;4.724;2023-03-23T15:35:14;11.23;;;3.13;;
27539;SDS011;15906;52.046;4.724;2023-03-23T15:37:45;13.82;;;2.83;;
27539;SDS011;15906;52.046;4.724;2023-03-23T15:40:22;12.68;;;2.63;;
27539;SDS011;15906;52.046;4.724;2023-03-23T15:42:49;15.30;;;2.85;;
27539;SDS011;15906;52.046;4.724;2023-03-23T15:45:30;12.38;;;2.97;;
27539;SDS011;15906;52.046;4.724;2023-03-23T15:47:57;13.50;;;2.70;;
27539;SDS011;15906;52.046;4.724;2023-03-23T15:50:34;11.15;;;2.70;;
27539;SDS011;15906;52.046;4.724;2023-03-23T15:53:00;12.77;;;2.67;;
27539;SDS011;15906;52.046;4.724;2023-03-23T15:55:40;10.55;;;2.35;;
27539;SDS011;15906;52.046;4.724;2023-03-23T15:58:12;13.68;;;3.10;;
27539;SDS011;15906;52.046;4.724;2023-03-23T16:00:38;11.95;;;3.05;;
27539;SDS011;15906;52.046;4.724;2023-03-23T16:03:06;9.48;;;2.75;;
27539;SDS011;15906;52.046;4.724;2023-03-23T16:05:35;13.20;;;3.25;;
27539;SDS011;15906;52.046;4.724;2023-03-23T16:08:01;9.00;;;2.60;;
27539;SDS011;15906;52.046;4.724;2023-03-23T16:10:28;10.57;;;2.65;;
27539;SDS011;15906;52.046;4.724;2023-03-23T16:12:54;12.95;;;2.83;;
27539;SDS011;15906;52.046;4.724;2023-03-23T16:15:19;8.07;;;2.38;;
27539;SDS011;15906;52.046;4.724;2023-03-23T16:17:45;10.52;;;2.55;;
27539;SDS011;15906;52.046;4.724;2023-03-23T16:20:16;17.92;;;3.20;;
27539;SDS011;15906;52.046;4.724;2023-03-23T16:22:43;18.50;;;3.13;;
27539;SDS011;15906;52.046;4.724;2023-03-23T16:25:09;17.42;;;3.47;;
27539;SDS011;15906;52.046;4.724;2023-03-23T16:27:36;15.18;;;3.50;;
27539;SDS011;15906;52.046;4.724;2023-03-23T16:30:35;15.40;;;3.03;;